Time;durP1;ratioP1;P1;durP2;ratioP2;P2;SDS_P1;SDS_P2;PMS_P1;PMS_P2;Temp;Humidity;BMP_temperature;BMP_pressure;BME280_temperature;BME280_humidity;BME280_pressure;Samples;Min_cycle;Max_cycle;Signal;HPM_P1;HPM_P2
2022/09/07 00:00:08;;;;;;;;;;;;;;;;;;1023557;29;20313;-73
2022/09/07 00:00:38;;;;;;;;;;;;;;;;;;1023796;29;19914;-73
2022/09/07 00:01:09;;;;;;;;;;;;;;;;;;1023710;28;20008;-73
2022/09/07 00:01:39;;;;;;;;;;;;;;;;;;1027736;28;19956;-73
2022/09/07 00:02:09;;;;;;;;;;;;;;;;;;1024034;28;20008;-73
2022/09/07 00:02:39;;;;;;;;;;;;;;;;;;1023209;29;20275;-73
2022/09/07 00:03:10;;;;;;;;;;;;;;;;;;1023777;29;19917;-73
2022/09/07 00:03:40;;;;;;;;;;;;;;;;;;1023662;29;19914;-73
2022/09/07 00:04:10;;;;;;;;;;;;;;;;;;1023760;29;19946;-73
2022/09/07 00:04:41;;;;;;;;;;;;;;;;;;1023390;28;19914;-73
2022/09/07 00:05:11;;;;;;;;;;;;;;;;;;1022720;29;19950;-73
2022/09/07 00:05:42;;;;;;;;;;;;;;;;;;1023687;28;19914;-73
2022/09/07 00:06:12;;;;;;;;;;;;;;;;;;1023749;29;19949;-73
2022/09/07 00:06:42;;;;;;;;;;;;;;;;;;1023926;29;19910;-73
2022/09/07 00:07:12;;;;;;;;;;;;;;;;;;1024908;28;20298;-73
2022/09/07 00:07:43;;;;;;;;;;;;;;;;;;1024792;28;19916;-73
2022/09/07 00:08:13;;;;;;;;;;;;;;;;;;1024930;28;20330;-73
2022/09/07 00:08:43;;;;;;;;;;;;;;;;;;1024593;28;19911;-73
2022/09/07 00:09:14;;;;;;;;;;;;;;;;;;1024924;28;19961;-73
2022/09/07 00:09:44;;;;;;;;;;;;;;;;;;1024758;28;19910;-73
2022/09/07 00:10:14;;;;;;;;;;;;;;;;;;1024936;28;20004;-73
2022/09/07 00:10:44;;;;;;;;;;;;;;;;;;1024605;28;19914;-73
2022/09/07 00:11:15;;;;;;;;;;;;;;;;;;1024898;28;19953;-73
2022/09/07 00:11:45;;;;;;;;;;;;;;;;;;1024839;28;19914;-73
2022/09/07 00:12:15;;;;;;;;;;;;;;;;;;1024892;28;20405;-73
2022/09/07 00:12:46;;;;;;;;;;;;;;;;;;1024216;29;19917;-73
2022/09/07 00:13:16;;;;;;;;;;;;;;;;;;1024280;29;19917;-73
2022/09/07 00:13:46;;;;;;;;;;;;;;;;;;1024430;29;20592;-73
2022/09/07 00:14:17;;;;;;;;;;;;;;;;;;1024536;28;19910;-73
2022/09/07 00:14:47;;;;;;;;;;;;;;;;;;1028318;28;20398;-73
2022/09/07 00:15:17;;;;;;;;;;;;;;;;;;1028478;28;20041;-73
2022/09/07 00:15:48;;;;;;;;;;;;;;;;;;1024517;28;19942;-73
2022/09/07 00:16:18;;;;;;;;;;;;;;;;;;1024733;28;20401;-73
2022/09/07 00:16:48;;;;;;;;;;;;;;;;;;1024593;29;19962;-73
2022/09/07 00:17:18;;;;;;;;;;;;;;;;;;1024806;28;20366;-73
2022/09/07 00:17:49;;;;;;;;;;;;;;;;;;1024815;28;19917;-73
2022/09/07 00:18:19;;;;;;;;;;;;;;;;;;1024797;28;20444;-73
2022/09/07 00:18:49;;;;;;;;;;;;;;;;;;1024234;29;19918;-73
2022/09/07 00:19:20;;;;;;;;;;;;;;;;;;1024455;29;19914;-73
2022/09/07 00:19:50;;;;;;;;;;;;;;;;;;1024414;28;20005;-73
2022/09/07 00:20:20;;;;;;;;;;;;;;;;;;1023280;29;19911;-73
2022/09/07 00:20:51;;;;;;;;;;;;;;;;;;1024102;29;20005;-73
2022/09/07 00:21:21;;;;;;;;;;;;;;;;;;1024733;28;20009;-73
2022/09/07 00:21:51;;;;;;;;;;;;;;;;;;1024825;28;19922;-73
2022/09/07 00:22:21;;;;;;;;;;;;;;;;;;1024738;29;20518;-73
2022/09/07 00:22:52;;;;;;;;;;;;;;;;;;1024653;29;19960;-73
2022/09/07 00:23:22;;;;;;;;;;;;;;;;;;1024822;29;19911;-73
2022/09/07 00:23:53;;;;;;;;;;;;;;;;;;1024822;29;19916;-73
2022/09/07 00:24:23;;;;;;;;;;;;;;;;;;1024806;28;19910;-73
2022/09/07 00:24:53;;;;;;;;;;;;;;;;;;1024572;28;20013;-73
2022/09/07 00:25:23;;;;;;;;;;;;;;;;;;1024764;28;19917;-73
2022/09/07 00:25:54;;;;;;;;;;;;;;;;;;1024793;28;19910;-73
2022/09/07 00:26:24;;;;;;;;;;;;;;;;;;1024719;28;19911;-73
2022/09/07 00:26:54;;;;;;;;;;;;;;;;;;1024607;28;19965;-73
2022/09/07 00:27:24;;;;;;;;;;;;;;;;;;1024577;29;19921;-73
2022/09/07 00:27:55;;;;;;;;;;;;;;;;;;1024106;29;19950;-73
2022/09/07 00:28:25;;;;;;;;;;;;;;;;;;1024285;29;19921;-73
2022/09/07 00:28:55;;;;;;;;;;;;;;;;;;1024317;29;19964;-73
2022/09/07 00:29:26;;;;;;;;;;;;;;;;;;1024453;29;20406;-73
2022/09/07 00:29:56;;;;;;;;;;;;;;;;;;1024401;28;19910;-73
2022/09/07 00:30:26;;;;;;;;;;;;;;;;;;1024615;29;20441;-73
2022/09/07 00:30:56;;;;;;;;;;;;;;;;;;1024598;28;19910;-73
2022/09/07 00:31:27;;;;;;;;;;;;;;;;;;1024699;28;19911;-73
2022/09/07 00:31:57;;;;;;;;;;;;;;;;;;1024748;29;19917;-73
2022/09/07 00:32:27;;;;;;;;;;;;;;;;;;1024217;29;19941;-73
2022/09/07 00:32:57;;;;;;;;;;;;;;;;;;1024316;29;20317;-73
2022/09/07 00:33:28;;;;;;;;;;;;;;;;;;1024479;29;20285;-73
2022/09/07 00:33:58;;;;;;;;;;;;;;;;;;1024514;29;19910;-73
2022/09/07 00:34:28;;;;;;;;;;;;;;;;;;1024245;29;20326;-73
2022/09/07 00:34:59;;;;;;;;;;;;;;;;;;1024198;28;20437;-73
2022/09/07 00:35:29;;;;;;;;;;;;;;;;;;1021838;29;19930;-73
2022/09/07 00:35:59;;;;;;;;;;;;;;;;;;1022269;29;20390;-73
2022/09/07 00:36:30;;;;;;;;;;;;;;;;;;1024252;29;20046;-73
2022/09/07 00:37:00;;;;;;;;;;;;;;;;;;1024398;28;20476;-73
2022/09/07 00:37:30;;;;;;;;;;;;;;;;;;1028468;28;19914;-73
2022/09/07 00:38:00;;;;;;;;;;;;;;;;;;1024609;29;19910;-73
2022/09/07 00:38:31;;;;;;;;;;;;;;;;;;1024650;29;19933;-73
2022/09/07 00:39:01;;;;;;;;;;;;;;;;;;1024554;29;20425;-73
2022/09/07 00:39:32;;;;;;;;;;;;;;;;;;1024704;28;19969;-73
2022/09/07 00:40:03;;;;;;;;;;;;;;;;;;1024717;28;19921;-73
2022/09/07 00:40:33;;;;;;;;;;;;;;;;;;1024660;28;19910;-73
2022/09/07 00:41:03;;;;;;;;;;;;;;;;;;1024222;29;19914;-73
2022/09/07 00:41:34;;;;;;;;;;;;;;;;;;1024327;29;20008;-73
2022/09/07 00:42:04;;;;;;;;;;;;;;;;;;1024463;29;19919;-73
2022/09/07 00:42:34;;;;;;;;;;;;;;;;;;1024324;29;19911;-73
2022/09/07 00:43:04;;;;;;;;;;;;;;;;;;1028284;28;20373;-73
2022/09/07 00:43:35;;;;;;;;;;;;;;;;;;1028391;28;19910;-73
2022/09/07 00:44:05;;;;;;;;;;;;;;;;;;1022969;29;19957;-73
2022/09/07 00:44:35;;;;;;;;;;;;;;;;;;1023962;28;19910;-73
2022/09/07 00:45:06;;;;;;;;;;;;;;;;;;1023889;29;19910;-73
2022/09/07 00:45:36;;;;;;;;;;;;;;;;;;1024465;29;19917;-73
2022/09/07 00:46:06;;;;;;;;;;;;;;;;;;1024128;29;19918;-73
2022/09/07 00:46:37;;;;;;;;;;;;;;;;;;1024216;29;20311;-73
2022/09/07 00:47:07;;;;;;;;;;;;;;;;;;1025102;28;20406;-73
2022/09/07 00:47:37;;;;;;;;;;;;;;;;;;1024316;28;19961;-73
2022/09/07 00:48:08;;;;;;;;;;;;;;;;;;1027871;28;19961;-73
2022/09/07 00:48:38;;;;;;;;;;;;;;;;;;1028091;28;19914;-73
2022/09/07 00:49:08;;;;;;;;;;;;;;;;;;1028325;28;20376;-73
2022/09/07 00:49:38;;;;;;;;;;;;;;;;;;1024581;28;19911;-73
2022/09/07 00:50:09;;;;;;;;;;;;;;;;;;1023236;29;20434;-73
2022/09/07 00:50:39;;;;;;;;;;;;;;;;;;1024680;28;19911;-73
2022/09/07 00:51:09;;;;;;;;;;;;;;;;;;1024409;29;20321;-73
2022/09/07 00:51:39;;;;;;;;;;;;;;;;;;1024336;29;19957;-73
2022/09/07 00:52:10;;;;;;;;;;;;;;;;;;1022506;29;19914;-73
2022/09/07 00:52:40;;;;;;;;;;;;;;;;;;1021869;29;19914;-73
2022/09/07 00:53:10;;;;;;;;;;;;;;;;;;1022385;29;19934;-73
2022/09/07 00:53:41;;;;;;;;;;;;;;;;;;1024349;29;20485;-73
2022/09/07 00:54:11;;;;;;;;;;;;;;;;;;1024434;29;19914;-73
2022/09/07 00:54:41;;;;;;;;;;;;;;;;;;1024452;28;20064;-73
2022/09/07 00:55:11;;;;;;;;;;;;;;;;;;1024288;29;19914;-73
2022/09/07 00:55:42;;;;;;;;;;;;;;;;;;1024317;29;20402;-73
2022/09/07 00:56:12;;;;;;;;;;;;;;;;;;1024109;29;19914;-73
2022/09/07 00:56:42;;;;;;;;;;;;;;;;;;1024222;29;19910;-73
2022/09/07 00:57:13;;;;;;;;;;;;;;;;;;1024552;29;19917;-73
2022/09/07 00:57:43;;;;;;;;;;;;;;;;;;1023291;29;19965;-73
2022/09/07 00:58:13;;;;;;;;;;;;;;;;;;1024078;29;20004;-73
2022/09/07 00:58:43;;;;;;;;;;;;;;;;;;1023877;29;19978;-73
2022/09/07 00:59:14;;;;;;;;;;;;;;;;;;1024238;29;19914;-73
2022/09/07 00:59:44;;;;;;;;;;;;;;;;;;1024570;29;19980;-73
2022/09/07 01:00:14;;;;;;;;;;;;;;;;;;1024614;28;19914;-73
2022/09/07 01:00:45;;;;;;;;;;;;;;;;;;1024385;29;20417;-73
2022/09/07 01:01:16;;;;;;;;;;;;;;;;;;1024116;28;20001;-73
2022/09/07 01:01:46;;;;;;;;;;;;;;;;;;1024588;28;20005;-73
2022/09/07 01:02:17;;;;;;;;;;;;;;;;;;1024624;28;19958;-73
2022/09/07 01:02:47;;;;;;;;;;;;;;;;;;1024460;28;19917;-73
2022/09/07 01:03:17;;;;;;;;;;;;;;;;;;1024604;28;19915;-73
2022/09/07 01:03:48;;;;;;;;;;;;;;;;;;1024625;28;20343;-73
2022/09/07 01:04:18;;;;;;;;;;;;;;;;;;1024149;29;19911;-73
2022/09/07 01:04:49;;;;;;;;;;;;;;;;;;1024036;28;19921;-73
2022/09/07 01:05:19;;;;;;;;;;;;;;;;;;1024093;29;19915;-73
2022/09/07 01:05:49;;;;;;;;;;;;;;;;;;1022295;29;19917;-73
2022/09/07 01:06:19;;;;;;;;;;;;;;;;;;1024222;29;19915;-73
2022/09/07 01:06:50;;;;;;;;;;;;;;;;;;1024119;29;19917;-73
2022/09/07 01:07:20;;;;;;;;;;;;;;;;;;1024232;29;19910;-73
2022/09/07 01:07:51;;;;;;;;;;;;;;;;;;1024509;28;20290;-73
2022/09/07 01:08:22;;;;;;;;;;;;;;;;;;1024090;29;19910;-73
2022/09/07 01:08:52;;;;;;;;;;;;;;;;;;1024398;28;20282;-73
2022/09/07 01:09:22;;;;;;;;;;;;;;;;;;1024313;29;20366;-73
2022/09/07 01:09:53;;;;;;;;;;;;;;;;;;1024195;28;19910;-73
2022/09/07 01:10:23;;;;;;;;;;;;;;;;;;1024194;29;19914;-73
2022/09/07 01:10:53;;;;;;;;;;;;;;;;;;1024090;29;19910;-73
2022/09/07 01:11:24;;;;;;;;;;;;;;;;;;1024364;29;19910;-73
2022/09/07 01:11:54;;;;;;;;;;;;;;;;;;1024266;28;19914;-73
2022/09/07 01:12:24;;;;;;;;;;;;;;;;;;1024163;29;19960;-73
2022/09/07 01:12:55;;;;;;;;;;;;;;;;;;1023920;29;20080;-73
2022/09/07 01:13:26;;;;;;;;;;;;;;;;;;1023991;29;19915;-73
2022/09/07 01:13:57;;;;;;;;;;;;;;;;;;1024089;29;19922;-73
2022/09/07 01:14:27;;;;;;;;;;;;;;;;;;1024417;28;20285;-73
2022/09/07 01:14:58;;;;;;;;;;;;;;;;;;1023201;29;19965;-73
2022/09/07 01:15:28;;;;;;;;;;;;;;;;;;1024148;29;19917;-73
2022/09/07 01:15:58;;;;;;;;;;;;;;;;;;1023973;29;19965;-73
2022/09/07 01:16:28;;;;;;;;;;;;;;;;;;1023755;28;19911;-73
2022/09/07 01:16:59;;;;;;;;;;;;;;;;;;1024014;28;20836;-73
2022/09/07 01:17:29;;;;;;;;;;;;;;;;;;1027927;28;19922;-74
2022/09/07 01:18:00;;;;;;;;;;;;;;;;;;1027844;28;20447;-73
2022/09/07 01:18:32;;;;;;;;;;;;;;;;;;1023970;29;19910;-73
2022/09/07 01:19:02;;;;;;;;;;;;;;;;;;1023791;28;19915;-73
2022/09/07 01:19:33;;;;;;;;;;;;;;;;;;1023702;28;19914;-73
2022/09/07 01:20:04;;;;;;;;;;;;;;;;;;1021854;28;19910;-73
2022/09/07 01:20:34;;;;;;;;;;;;;;;;;;1023002;29;20013;-74
2022/09/07 01:21:04;;;;;;;;;;;;;;;;;;1023819;29;19965;-73
2022/09/07 01:21:35;;;;;;;;;;;;;;;;;;1023156;28;19910;-73
2022/09/07 01:22:05;;;;;;;;;;;;;;;;;;1023690;29;20235;-73
2022/09/07 01:22:35;;;;;;;;;;;;;;;;;;1026938;28;19917;-73
2022/09/07 01:23:06;;;;;;;;;;;;;;;;;;1026442;28;19952;-73
2022/09/07 01:23:36;;;;;;;;;;;;;;;;;;1023450;29;19910;-73
2022/09/07 01:24:06;;;;;;;;;;;;;;;;;;1023530;29;20339;-73
2022/09/07 01:24:37;;;;;;;;;;;;;;;;;;1019828;29;19920;-73
2022/09/07 01:25:07;;;;;;;;;;;;;;;;;;1019766;29;20005;-73
2022/09/07 01:25:37;;;;;;;;;;;;;;;;;;1027564;28;19960;-73
2022/09/07 01:26:07;;;;;;;;;;;;;;;;;;1027280;28;19974;-74
2022/09/07 01:26:38;;;;;;;;;;;;;;;;;;1027210;28;19910;-73
2022/09/07 01:27:08;;;;;;;;;;;;;;;;;;1027468;28;20015;-74
2022/09/07 01:27:38;;;;;;;;;;;;;;;;;;1024042;28;19910;-74
2022/09/07 01:28:09;;;;;;;;;;;;;;;;;;1023631;28;20033;-74
2022/09/07 01:28:39;;;;;;;;;;;;;;;;;;1024079;28;20326;-73
2022/09/07 01:29:10;;;;;;;;;;;;;;;;;;1022888;29;19914;-74
2022/09/07 01:29:40;;;;;;;;;;;;;;;;;;1023795;28;19914;-74
2022/09/07 01:30:10;;;;;;;;;;;;;;;;;;1023853;29;19985;-73
2022/09/07 01:30:41;;;;;;;;;;;;;;;;;;1023491;29;19970;-74
2022/09/07 01:31:11;;;;;;;;;;;;;;;;;;1024061;29;19918;-73
2022/09/07 01:31:43;;;;;;;;;;;;;;;;;;1023593;29;20421;-74
2022/09/07 01:32:13;;;;;;;;;;;;;;;;;;1024647;28;19914;-75
2022/09/07 01:32:50;;;;;;;;;;;;;;;;;;1022110;29;19914;-75
2022/09/07 01:33:21;;;;;;;;;;;;;;;;;;1019328;29;19918;-74
2022/09/07 01:33:52;;;;;;;;;;;;;;;;;;1019579;29;19922;-74
2022/09/07 01:34:22;;;;;;;;;;;;;;;;;;1018254;29;19914;-75
2022/09/07 01:34:53;;;;;;;;;;;;;;;;;;1023180;28;19917;-74
2022/09/07 01:35:24;;;;;;;;;;;;;;;;;;1018902;28;19970;-75
2022/09/07 01:35:54;;;;;;;;;;;;;;;;;;1020820;28;20409;-74
2022/09/07 01:36:28;;;;;;;;;;;;;;;;;;1019677;29;19910;-75
2022/09/07 01:37:02;;;;;;;;;;;;;;;;;;1016352;29;20374;-74
2022/09/07 01:37:34;;;;;;;;;;;;;;;;;;1014099;29;20368;-74
2022/09/07 01:38:05;;;;;;;;;;;;;;;;;;1014635;29;20378;-74
2022/09/07 01:38:35;;;;;;;;;;;;;;;;;;1019849;29;19918;-74
2022/09/07 01:39:07;;;;;;;;;;;;;;;;;;1020533;29;19910;-75
2022/09/07 01:39:37;;;;;;;;;;;;;;;;;;1019904;28;19941;-75
2022/09/07 01:40:08;;;;;;;;;;;;;;;;;;1018441;29;19911;-75
2022/09/07 01:40:38;;;;;;;;;;;;;;;;;;1019516;29;20498;-75
2022/09/07 01:41:09;;;;;;;;;;;;;;;;;;1021315;28;19911;-75
2022/09/07 01:41:41;;;;;;;;;;;;;;;;;;1023346;29;19998;-75
2022/09/07 01:42:11;;;;;;;;;;;;;;;;;;1022394;29;20672;-75
2022/09/07 01:42:41;;;;;;;;;;;;;;;;;;1023345;29;20834;-75
2022/09/07 01:43:12;;;;;;;;;;;;;;;;;;1019946;28;20435;-75
2022/09/07 01:43:42;;;;;;;;;;;;;;;;;;1008715;28;20469;-75
2022/09/07 01:44:12;;;;;;;;;;;;;;;;;;1007556;28;19922;-75
2022/09/07 01:44:43;;;;;;;;;;;;;;;;;;1008962;29;19910;-75
2022/09/07 01:45:13;;;;;;;;;;;;;;;;;;1008298;28;20020;-74
2022/09/07 01:45:44;;;;;;;;;;;;;;;;;;1009477;29;20218;-74
2022/09/07 01:46:16;;;;;;;;;;;;;;;;;;1013420;28;19910;-75
2022/09/07 01:46:47;;;;;;;;;;;;;;;;;;1014537;28;21116;-75
2022/09/07 01:47:17;;;;;;;;;;;;;;;;;;1010156;28;20465;-75
2022/09/07 01:47:48;;;;;;;;;;;;;;;;;;1009989;28;19914;-75
2022/09/07 01:48:19;;;;;;;;;;;;;;;;;;1009947;29;20329;-75
2022/09/07 01:48:49;;;;;;;;;;;;;;;;;;1010355;29;20384;-75
2022/09/07 01:49:20;;;;;;;;;;;;;;;;;;1007690;29;20339;-74
2022/09/07 01:49:50;;;;;;;;;;;;;;;;;;1011098;29;19974;-74
2022/09/07 01:50:24;;;;;;;;;;;;;;;;;;1007292;29;20426;-75
2022/09/07 01:50:57;;;;;;;;;;;;;;;;;;1007874;29;19915;-75
2022/09/07 01:51:27;;;;;;;;;;;;;;;;;;1006688;29;20226;-75
2022/09/07 01:51:58;;;;;;;;;;;;;;;;;;1008452;28;20292;-75
2022/09/07 01:52:28;;;;;;;;;;;;;;;;;;1010950;28;20189;-74
2022/09/07 01:52:58;;;;;;;;;;;;;;;;;;1013579;28;19969;-74
2022/09/07 01:53:29;;;;;;;;;;;;;;;;;;1013552;28;19937;-75
2022/09/07 01:53:59;;;;;;;;;;;;;;;;;;1014581;28;19984;-75
2022/09/07 01:54:33;;;;;;;;;;;;;;;;;;1011859;28;20669;-75
2022/09/07 01:55:04;;;;;;;;;;;;;;;;;;1021063;28;20349;-75
2022/09/07 01:55:40;;;;;;;;;;;;;;;;;;1008132;29;20173;-76
2022/09/07 01:56:11;;;;;;;;;;;;;;;;;;1011280;29;20270;-75
2022/09/07 01:56:41;;;;;;;;;;;;;;;;;;1011186;29;20247;-75
2022/09/07 01:57:12;;;;;;;;;;;;;;;;;;1012244;29;19915;-75
2022/09/07 01:57:42;;;;;;;;;;;;;;;;;;1010527;28;19918;-75
2022/09/07 01:58:13;;;;;;;;;;;;;;;;;;1011242;28;19914;-75
2022/09/07 01:58:43;;;;;;;;;;;;;;;;;;1012152;28;20434;-74
2022/09/07 01:59:14;;;;;;;;;;;;;;;;;;1011265;29;20428;-74
2022/09/07 01:59:44;;;;;;;;;;;;;;;;;;1011575;28;20084;-74
2022/09/07 02:00:15;;;;;;;;;;;;;;;;;;1011232;29;20507;-75
2022/09/07 02:00:45;;;;;;;;;;;;;;;;;;1008086;29;20204;-74
2022/09/07 02:01:16;;;;;;;;;;;;;;;;;;1009507;29;19920;-75
2022/09/07 02:01:46;;;;;;;;;;;;;;;;;;1007594;29;19918;-76
2022/09/07 02:02:17;;;;;;;;;;;;;;;;;;1013244;29;19926;-75
2022/09/07 02:02:48;;;;;;;;;;;;;;;;;;1009688;29;20280;-75
2022/09/07 02:03:18;;;;;;;;;;;;;;;;;;1009509;29;20438;-75
2022/09/07 02:03:49;;;;;;;;;;;;;;;;;;1009471;29;19918;-75
2022/09/07 02:04:20;;;;;;;;;;;;;;;;;;1016218;23;19909;-77
2022/09/07 02:04:51;;;;;;;;;;;;;;;;;;1037118;23;20489;-76
2022/09/07 02:05:22;;;;;;;;;;;;;;;;;;1052161;23;19913;-76
2022/09/07 02:05:57;;;;;;;;;;;;;;;;;;1184026;23;19922;-75
2022/09/07 02:07:06;;;;;;;;;;;;;;;;;;1028841;23;20128;-90
2022/09/07 02:07:36;;;;;;;;;;;;;;;;;;1046020;23;19910;-76
2022/09/07 02:08:08;;;;;;;;;;;;;;;;;;1116993;23;19948;-76
2022/09/07 02:08:38;;;;;;;;;;;;;;;;;;1002634;29;19990;-76
2022/09/07 02:09:08;;;;;;;;;;;;;;;;;;1001430;29;21171;-75
2022/09/07 02:09:40;;;;;;;;;;;;;;;;;;1000786;29;20158;-75
2022/09/07 02:10:10;;;;;;;;;;;;;;;;;;997372;29;20323;-76
2022/09/07 02:10:41;;;;;;;;;;;;;;;;;;999283;29;19916;-76
2022/09/07 02:11:11;;;;;;;;;;;;;;;;;;998595;29;19932;-76
2022/09/07 02:11:42;;;;;;;;;;;;;;;;;;1000815;29;19915;-76
2022/09/07 02:12:17;;;;;;;;;;;;;;;;;;996436;29;20248;-76
2022/09/07 02:12:48;;;;;;;;;;;;;;;;;;997348;29;19916;-75
2022/09/07 02:13:19;;;;;;;;;;;;;;;;;;995244;29;20498;-76
2022/09/07 02:13:49;;;;;;;;;;;;;;;;;;999864;29;20287;-77
2022/09/07 02:14:21;;;;;;;;;;;;;;;;;;1004002;29;19959;-75
2022/09/07 02:14:56;;;;;;;;;;;;;;;;;;1011302;23;20634;-77
2022/09/07 02:17:52;;;;;;;;;;;;;;;;;;1004421;29;20067;-78
2022/09/07 02:18:48;;;;;;;;;;;;;;;;;;1008542;29;19931;-76
2022/09/07 02:19:19;;;;;;;;;;;;;;;;;;1009327;29;20696;-77
2022/09/07 02:19:50;;;;;;;;;;;;;;;;;;1012552;29;20135;-77
2022/09/07 02:20:22;;;;;;;;;;;;;;;;;;1007033;29;19926;-76
2022/09/07 02:20:54;;;;;;;;;;;;;;;;;;1009395;29;20184;-77
2022/09/07 02:21:26;;;;;;;;;;;;;;;;;;1007076;29;20270;-77
2022/09/07 02:21:58;;;;;;;;;;;;;;;;;;1028541;23;19921;-75
2022/09/07 02:23:07;;;;;;;;;;;;;;;;;;1045869;23;20052;-76
2022/09/07 02:23:38;;;;;;;;;;;;;;;;;;1010699;29;19923;-76
2022/09/07 02:24:13;;;;;;;;;;;;;;;;;;1044154;23;20366;-77
2022/09/07 02:25:23;;;;;;;;;;;;;;;;;;995412;29;19959;-77
2022/09/07 02:25:54;;;;;;;;;;;;;;;;;;1000286;29;20790;-77
2022/09/07 02:26:25;;;;;;;;;;;;;;;;;;1000772;29;19938;-77
2022/09/07 02:26:57;;;;;;;;;;;;;;;;;;1002764;29;20164;-77
2022/09/07 02:27:27;;;;;;;;;;;;;;;;;;1003547;29;19918;-76
2022/09/07 02:28:04;;;;;;;;;;;;;;;;;;1111730;23;19949;-75
2022/09/07 02:28:34;;;;;;;;;;;;;;;;;;1156664;23;20732;-78
2022/09/07 02:29:22;;;;;;;;;;;;;;;;;;1009388;29;19974;-76
2022/09/07 02:29:53;;;;;;;;;;;;;;;;;;1105413;23;20413;-75
2022/09/07 02:31:03;;;;;;;;;;;;;;;;;;1111516;23;20907;-77
2022/09/07 02:31:33;;;;;;;;;;;;;;;;;;1028655;23;19933;-77
2022/09/07 02:32:04;;;;;;;;;;;;;;;;;;1021469;28;20884;-77
2022/09/07 02:32:35;;;;;;;;;;;;;;;;;;1023579;28;19973;-78
2022/09/07 02:33:07;;;;;;;;;;;;;;;;;;1024626;28;19953;-78
2022/09/07 02:33:37;;;;;;;;;;;;;;;;;;1025952;28;19916;-78
2022/09/07 02:34:07;;;;;;;;;;;;;;;;;;1023935;28;19925;-77
2022/09/07 02:34:39;;;;;;;;;;;;;;;;;;1024355;28;19910;-77
2022/09/07 02:35:10;;;;;;;;;;;;;;;;;;1022686;28;19945;-77
2022/09/07 02:35:40;;;;;;;;;;;;;;;;;;1020888;28;19910;-77
2022/09/07 02:36:10;;;;;;;;;;;;;;;;;;1022342;28;19917;-77
2022/09/07 02:36:41;;;;;;;;;;;;;;;;;;1021610;28;20151;-76
2022/09/07 02:37:11;;;;;;;;;;;;;;;;;;1020728;28;19914;-77
2022/09/07 02:37:42;;;;;;;;;;;;;;;;;;1017349;29;20186;-78
2022/09/07 02:38:12;;;;;;;;;;;;;;;;;;1015783;28;19914;-76
2022/09/07 02:38:42;;;;;;;;;;;;;;;;;;1021601;28;20283;-78
2022/09/07 02:39:13;;;;;;;;;;;;;;;;;;1021804;28;19910;-78
2022/09/07 02:39:43;;;;;;;;;;;;;;;;;;1017719;29;20000;-77
2022/09/07 02:40:13;;;;;;;;;;;;;;;;;;1018603;28;19918;-77
2022/09/07 02:40:44;;;;;;;;;;;;;;;;;;1020206;28;20081;-78
2022/09/07 02:41:14;;;;;;;;;;;;;;;;;;1022612;28;19921;-78
2022/09/07 02:41:50;;;;;;;;;;;;;;;;;;1020820;28;19977;-76
2022/09/07 02:42:21;;;;;;;;;;;;;;;;;;1016509;28;20002;-77
2022/09/07 02:42:51;;;;;;;;;;;;;;;;;;1044845;23;19916;-79
2022/09/07 02:43:23;;;;;;;;;;;;;;;;;;1073405;23;20243;-78
2022/09/07 02:44:24;;;;;;;;;;;;;;;;;;1051748;23;20345;-77
2022/09/07 02:44:54;;;;;;;;;;;;;;;;;;1014853;23;19930;-78
2022/09/07 02:45:26;;;;;;;;;;;;;;;;;;1015149;29;20340;-77
2022/09/07 02:45:59;;;;;;;;;;;;;;;;;;1015834;29;19910;-77
2022/09/07 02:46:31;;;;;;;;;;;;;;;;;;1015733;29;19917;-78
2022/09/07 02:47:03;;;;;;;;;;;;;;;;;;1011424;29;19954;-77
2022/09/07 02:47:34;;;;;;;;;;;;;;;;;;1012071;29;20115;-77
2022/09/07 02:48:05;;;;;;;;;;;;;;;;;;1009042;29;19975;-78
2022/09/07 02:48:37;;;;;;;;;;;;;;;;;;1009295;29;19992;-78
2022/09/07 02:49:08;;;;;;;;;;;;;;;;;;1013045;29;19907;-77
2022/09/07 02:50:12;;;;;;;;;;;;;;;;;;1026114;23;20017;-78
2022/09/07 02:50:47;;;;;;;;;;;;;;;;;;1020581;29;19930;-78
2022/09/07 02:51:22;;;;;;;;;;;;;;;;;;1025024;23;19920;-78
2022/09/07 02:51:54;;;;;;;;;;;;;;;;;;1011246;29;19990;-78
2022/09/07 02:52:25;;;;;;;;;;;;;;;;;;1012380;29;20004;-77
2022/09/07 02:52:55;;;;;;;;;;;;;;;;;;1006259;29;20815;-78
2022/09/07 02:53:25;;;;;;;;;;;;;;;;;;1006412;29;19915;-75
2022/09/07 02:53:56;;;;;;;;;;;;;;;;;;1008735;29;19919;-75
2022/09/07 02:54:26;;;;;;;;;;;;;;;;;;1007104;29;20345;-73
2022/09/07 02:54:57;;;;;;;;;;;;;;;;;;1002659;29;20472;-75
2022/09/07 02:55:27;;;;;;;;;;;;;;;;;;1006874;29;20840;-77
2022/09/07 02:55:57;;;;;;;;;;;;;;;;;;1010786;29;19914;-75
2022/09/07 02:56:28;;;;;;;;;;;;;;;;;;1014001;29;19915;-75
2022/09/07 02:56:58;;;;;;;;;;;;;;;;;;1008633;29;19922;-75
2022/09/07 02:57:28;;;;;;;;;;;;;;;;;;1008427;29;20279;-75
2022/09/07 02:57:59;;;;;;;;;;;;;;;;;;1007577;29;20410;-75
2022/09/07 02:58:29;;;;;;;;;;;;;;;;;;1012655;29;19919;-76
2022/09/07 02:59:00;;;;;;;;;;;;;;;;;;1014657;29;20443;-77
2022/09/07 02:59:30;;;;;;;;;;;;;;;;;;1009967;29;19922;-77
2022/09/07 03:00:01;;;;;;;;;;;;;;;;;;1011477;29;19921;-77
2022/09/07 03:00:31;;;;;;;;;;;;;;;;;;1008276;29;19962;-77
2022/09/07 03:01:02;;;;;;;;;;;;;;;;;;1008928;29;20520;-76
2022/09/07 03:01:32;;;;;;;;;;;;;;;;;;1008503;29;19919;-76
2022/09/07 03:02:02;;;;;;;;;;;;;;;;;;1007242;29;20235;-75
2022/09/07 03:02:32;;;;;;;;;;;;;;;;;;1006889;29;19915;-76
2022/09/07 03:03:03;;;;;;;;;;;;;;;;;;1007045;29;19919;-76
2022/09/07 03:03:33;;;;;;;;;;;;;;;;;;1012982;29;20426;-76
2022/09/07 03:04:04;;;;;;;;;;;;;;;;;;1010098;29;20310;-77
2022/09/07 03:04:34;;;;;;;;;;;;;;;;;;1009960;29;20136;-76
2022/09/07 03:05:04;;;;;;;;;;;;;;;;;;1007458;29;19958;-75
2022/09/07 03:05:35;;;;;;;;;;;;;;;;;;1007860;29;20484;-75
2022/09/07 03:06:05;;;;;;;;;;;;;;;;;;1007803;29;19924;-76
2022/09/07 03:06:36;;;;;;;;;;;;;;;;;;1007675;29;20334;-77
2022/09/07 03:07:06;;;;;;;;;;;;;;;;;;1010174;29;20369;-77
2022/09/07 03:07:37;;;;;;;;;;;;;;;;;;1010822;29;19921;-77
2022/09/07 03:08:07;;;;;;;;;;;;;;;;;;1009933;29;20331;-77
2022/09/07 03:08:38;;;;;;;;;;;;;;;;;;1011058;29;19946;-79
2022/09/07 03:09:08;;;;;;;;;;;;;;;;;;1010933;29;20017;-79
2022/09/07 03:09:39;;;;;;;;;;;;;;;;;;1007924;29;19983;-76
2022/09/07 03:10:09;;;;;;;;;;;;;;;;;;1037643;23;20699;-74
2022/09/07 03:10:40;;;;;;;;;;;;;;;;;;1013124;29;19915;-75
2022/09/07 03:11:10;;;;;;;;;;;;;;;;;;1009547;29;19915;-74
2022/09/07 03:11:40;;;;;;;;;;;;;;;;;;1007000;29;20331;-74
2022/09/07 03:12:11;;;;;;;;;;;;;;;;;;1007024;29;20285;-75
2022/09/07 03:12:43;;;;;;;;;;;;;;;;;;1006576;29;19919;-75
2022/09/07 03:13:13;;;;;;;;;;;;;;;;;;1006642;29;19915;-75
2022/09/07 03:13:44;;;;;;;;;;;;;;;;;;1007499;29;20466;-76
2022/09/07 03:14:14;;;;;;;;;;;;;;;;;;1006085;29;19922;-75
2022/09/07 03:14:44;;;;;;;;;;;;;;;;;;1009428;29;19927;-75
2022/09/07 03:15:15;;;;;;;;;;;;;;;;;;1008726;29;20429;-76
2022/09/07 03:15:45;;;;;;;;;;;;;;;;;;1009981;29;19957;-75
2022/09/07 03:16:15;;;;;;;;;;;;;;;;;;1006150;29;19959;-77
2022/09/07 03:16:46;;;;;;;;;;;;;;;;;;1010396;29;19911;-76
2022/09/07 03:17:16;;;;;;;;;;;;;;;;;;1008028;29;19949;-75
2022/09/07 03:17:47;;;;;;;;;;;;;;;;;;1002108;29;19919;-76
2022/09/07 03:18:17;;;;;;;;;;;;;;;;;;1005769;29;19995;-76
2022/09/07 03:18:47;;;;;;;;;;;;;;;;;;1007961;29;20210;-75
2022/09/07 03:19:18;;;;;;;;;;;;;;;;;;1010469;29;19922;-74
2022/09/07 03:19:48;;;;;;;;;;;;;;;;;;1012660;29;19915;-75
2022/09/07 03:20:18;;;;;;;;;;;;;;;;;;1017753;29;20749;-75
2022/09/07 03:20:49;;;;;;;;;;;;;;;;;;1018325;29;20500;-75
2022/09/07 03:21:22;;;;;;;;;;;;;;;;;;1014952;29;19926;-75
2022/09/07 03:21:53;;;;;;;;;;;;;;;;;;1014407;29;20428;-76
2022/09/07 03:22:23;;;;;;;;;;;;;;;;;;1012792;29;20146;-76
2022/09/07 03:22:53;;;;;;;;;;;;;;;;;;1011776;29;19911;-75
2022/09/07 03:23:24;;;;;;;;;;;;;;;;;;1011786;29;19965;-75
2022/09/07 03:23:54;;;;;;;;;;;;;;;;;;1012117;29;20505;-74
2022/09/07 03:24:24;;;;;;;;;;;;;;;;;;1012630;29;19915;-75
2022/09/07 03:24:55;;;;;;;;;;;;;;;;;;1012447;29;19910;-75
2022/09/07 03:25:25;;;;;;;;;;;;;;;;;;1012904;29;19998;-75
2022/09/07 03:25:55;;;;;;;;;;;;;;;;;;1012638;29;20332;-75
2022/09/07 03:26:26;;;;;;;;;;;;;;;;;;1013395;29;19919;-77
2022/09/07 03:26:56;;;;;;;;;;;;;;;;;;1011249;29;19986;-75
2022/09/07 03:27:26;;;;;;;;;;;;;;;;;;1008794;29;19954;-75
2022/09/07 03:27:57;;;;;;;;;;;;;;;;;;1010586;29;19918;-77
2022/09/07 03:28:27;;;;;;;;;;;;;;;;;;1015763;29;19969;-75
2022/09/07 03:28:58;;;;;;;;;;;;;;;;;;1010335;29;19923;-77
2022/09/07 03:29:29;;;;;;;;;;;;;;;;;;1008836;29;19918;-75
2022/09/07 03:29:59;;;;;;;;;;;;;;;;;;1010246;29;19931;-75
2022/09/07 03:30:29;;;;;;;;;;;;;;;;;;1009785;29;19930;-75
2022/09/07 03:31:00;;;;;;;;;;;;;;;;;;1010249;29;20519;-76
2022/09/07 03:31:31;;;;;;;;;;;;;;;;;;1011567;29;20459;-76
2022/09/07 03:32:01;;;;;;;;;;;;;;;;;;1011580;29;19918;-76
2022/09/07 03:32:31;;;;;;;;;;;;;;;;;;1011377;29;19922;-76
2022/09/07 03:33:03;;;;;;;;;;;;;;;;;;1010911;29;20442;-76
2022/09/07 03:33:33;;;;;;;;;;;;;;;;;;1009976;29;19974;-76
2022/09/07 03:34:03;;;;;;;;;;;;;;;;;;1010128;29;19914;-76
2022/09/07 03:34:35;;;;;;;;;;;;;;;;;;1006436;29;19911;-76
2022/09/07 03:35:05;;;;;;;;;;;;;;;;;;1011475;29;19926;-76
2022/09/07 03:35:37;;;;;;;;;;;;;;;;;;1011866;29;19995;-74
2022/09/07 03:36:07;;;;;;;;;;;;;;;;;;1011793;29;19915;-74